Oscoda, Michigan
Current Conditions -  °F | °C
As of 1:13 AM on Wednesday 22 Oct 2014 (Local Time) from KOSC Reporting Station
Overcast Overcast  
Wind Chill: 35°   Ceiling: 1900
Heat Index: 42°   Visibility: 10mi
Dew Point: 36°   Wind: 14mph
Humidity: 78%   Direction: 50°NE
Pressure: 30.28"   Gusts: NA
Location:  44.42°N, 83.33°W
Report Text: KOSC 220513Z AUTO 05012KT 10SM OVC019 05/02 A3028 RMK AO2 T00560020
Loading
Personal Weather Stations






























Interactive Weather Map
Tropical Storm Tracking
New forecast layout! Learn more

10-Day Weather Forecast

Advertisements
Track Severe Weather on mobile